Tiempo atmosférico en la estación meteorológica de Abenójar, Ciudad Real (718 m.)



Fecha
DESCASC
Temp. máxima en grados centígrados (hora)
DESCASC
Temp. mínima en grados centígrados (hora)
DESCASC
Temp. media en grados centígrados
DESCASC
Racha de viento máxima en m/sg (hora)
DESCASC
Velocidad máxima media en intervalos de 10 minutos(hora)
DESCASC
Precipitaciones diarias en mm
DESCASC
Precipitaciones de 00:00 a 06:00 en mm
DESCASC
Precipitaciones de 06:00 a 12:00 en mm
DESCASC
Precipitaciones de 12:00 a 18:00 en mm
DESCASC
Precipitaciones de 18:00 a 24:00 en mm
DESCASC
19-04-2018 22.7 (17:20) 9.7 (07:50) 16.2 10.28 (22:20) 6.94 (23:50) 0 0 0 0 0
18-04-2018 23.9 (18:20) 10.5 (05:50) 17.2 8.06 (23:50) 6.39 (23:50) 0 0 0 0 0
17-04-2018 21.5 (18:20) 6.2 (05:50) 13.8 6.67 (14:10) 4.17 (12:10) 0 0 0 0 0
16-04-2018 14.2 (19:10) 6.2 (08:20) 10.2 13.89 (00:30) 8.33 (00:30) 3.8 3.8 0 0 0
15-04-2018 15.2 (16:10) 6.4 (05:30) 10.8 9.72 (22:50) 6.11 (22:50) 0.6 0 0 0 0.6
14-04-2018 16.9 (16:30) 4.1 (08:00) 10.5 7.78 (16:40) 5 (18:20) 0 0 0 0 0
13-04-2018 14.5 (16:50) 2.7 (08:00) 8.6 5.28 (10:00) 3.06 (18:30) 0.2 0.2 0 0 0

Gráficas

Temp. máximas Temp. mínimas Temp. medias Precipitaciones Rachas de viento máximas Velocidades máximas media en intervalos de 10 minutos

Datos horarios

Fecha y hora oficial Temperatura (ºC) Velocidad del viento (km/h) Dirección del viento Racha (km/h) Dirección de racha Precipitación (mm) Presión (hPa) Tendencia (hPa) Humedad (%)
2018-04-21 23:00:00 -- -- -- -- -- -- -- -- --
2018-04-21 22:00:00 -- -- -- -- -- -- -- -- --
2018-04-21 21:00:00 -- -- -- -- -- -- -- -- --
2018-04-21 20:00:00 -- -- -- -- -- -- -- -- --
2018-04-21 19:00:00 21 8 Nordeste 22 Este 0 -- -- 49
2018-04-21 18:00:00 20.8 13 Nordeste 26 Este 0 -- -- 52
2018-04-21 17:00:00 20.9 13 Nordeste 27 Este 0 -- -- 53
2018-04-21 16:00:00 19.6 19 Nordeste 31 Nordeste 0 -- -- 55
2018-04-21 15:00:00 18.8 20 Este 32 Nordeste 0 -- -- 58
2018-04-21 14:00:00 16.6 22 Nordeste 33 Este 0 -- -- 63
2018-04-21 13:00:00 15.5 16 Este 35 Este 0 -- -- 68
2018-04-21 12:00:00 13.2 26 Este 43 Este 0 -- -- 78
2018-04-21 11:00:00 11.1 28 Nordeste 42 Nordeste 0 -- -- 86
2018-04-21 10:00:00 10.5 27 Nordeste 37 Nordeste 0 -- -- 87
2018-04-21 09:00:00 9.9 21 Este 33 Nordeste 0 -- -- 91
2018-04-21 08:00:00 9.4 18 Nordeste 27 Nordeste 0 -- -- 92
2018-04-21 07:00:00 9.7 9 Este 30 Este 0 -- -- 90
2018-04-21 06:00:00 10 23 Este 41 Este 0 -- -- 90
2018-04-21 05:00:00 10.3 28 Nordeste 42 Nordeste 0 -- -- 88
2018-04-21 04:00:00 10.9 29 Nordeste 39 Nordeste 0 -- -- 85
2018-04-21 03:00:00 11.8 24 Nordeste 33 Nordeste 0 -- -- 80
2018-04-21 02:00:00 12.7 22 Nordeste 34 Nordeste 0 -- -- 76
2018-04-21 01:00:00 13.3 20 Nordeste 30 Este 0 -- -- 71
2018-04-21 00:00:00 13.9 21 Nordeste 30 Nordeste 0 -- -- 68
2018-04-20 23:00:00 15.9 16 Nordeste 20 Nordeste 0 -- -- 60
2018-04-20 22:00:00 17.3 11 Este 19 Este 0 -- -- 56
2018-04-20 21:00:00 18.7 14 Nordeste 21 Nordeste 0 -- -- 49
2018-04-20 20:00:00 20.3 13 Este 31 Nordeste 0 -- -- 45
2018-04-20 19:00:00 21 20 Este 34 Este 0 -- -- 42
2018-04-20 18:00:00 21.3 21 Este 37 Este 0 -- -- 39
2018-04-20 17:00:00 21.3 23 Este 36 Este 0 -- -- 42
2018-04-20 16:00:00 20.8 21 Este 38 Este 0 -- -- 45
2018-04-20 15:00:00 20 23 Este 40 Este 0 -- -- 47
2018-04-20 14:00:00 18.8 22 Este 37 Sudeste 0 -- -- 52
2018-04-20 13:00:00 17.7 22 Este 39 Este 0 -- -- 57
2018-04-20 12:00:00 15.8 25 Este 39 Este 0 -- -- 63
2018-04-20 11:00:00 14.6 23 Este 39 Este 0 -- -- 68
2018-04-20 10:00:00 12.2 23 Este 38 Nordeste 0 -- -- 79
2018-04-20 09:00:00 9.7 24 Nordeste 38 Nordeste 0 -- -- 89
2018-04-20 08:00:00 8.7 22 Nordeste 30 Nordeste 0 -- -- 93
2018-04-20 07:00:00 9 19 Nordeste 35 Nordeste 0 -- -- 91
2018-04-20 06:00:00 9.5 25 Nordeste 39 Nordeste 0 -- -- 89
2018-04-20 05:00:00 10.3 27 Este 37 Nordeste 0 -- -- 85
2018-04-20 04:00:00 10.8 23 Nordeste 33 Este 0 -- -- 83
2018-04-20 03:00:00 11.5 19 Nordeste 32 Nordeste 0 -- -- 81
2018-04-20 02:00:00 12.1 17 Nordeste 31 Nordeste 0 -- -- 79
2018-04-20 01:00:00 13.3 24 Nordeste 33 Este 0 -- -- 72
2018-04-20 00:00:00 15.3 23 Este 35 Este 0 -- -- 58
2018-04-19 23:00:00 16.2 21 Nordeste 37 Este 0 -- -- 59
2018-04-19 22:00:00 17.5 13 Este 22 Este 0 -- -- 52
2018-04-19 21:00:00 18.8 11 Nordeste 18 Nordeste 0 -- -- 49
2018-04-19 20:00:00 21.8 10 Este 23 Este 0 -- -- 37
2018-04-19 19:00:00 22.4 13 Este 26 Este 0 -- -- 32
2018-04-19 18:00:00 22.6 15 Este 30 Este 0 -- -- 32
2018-04-19 17:00:00 22.4 13 Este 28 Este 0 -- -- 35
2018-04-19 16:00:00 22 13 Este 29 Este 0 -- -- 40
2018-04-19 15:00:00 20.6 14 Este 27 Este 0 -- -- 42
2018-04-19 14:00:00 19.5 17 Este 29 Este 0 -- -- 49
2018-04-19 13:00:00 18.6 16 Este 28 Este 0 -- -- 51
2018-04-19 12:00:00 17.2 17 Este 25 Este 0 -- -- 58
2018-04-19 11:00:00 14.9 16 Este 25 Nordeste 0 -- -- 64
2018-04-19 10:00:00 12.5 12 Nordeste 31 Nordeste 0 -- -- 70
2018-04-19 09:00:00 10.7 21 Nordeste 30 Nordeste 0 -- -- 74
2018-04-19 08:00:00 9.7 19 Nordeste 31 Nordeste 0 -- -- 78
2018-04-19 07:00:00 10.1 17 Nordeste 33 Nordeste 0 -- -- 75
2018-04-19 06:00:00 11.4 18 Este 27 Este 0 -- -- 68
2018-04-19 05:00:00 10.8 19 Nordeste 26 Nordeste 0 -- -- 73
2018-04-19 04:00:00 -- -- -- -- -- -- -- -- --
2018-04-19 03:00:00 12.5 17 Nordeste 27 Nordeste 0 -- -- 67
2018-04-19 02:00:00 13.3 19 Nordeste 30 Este 0 -- -- 65
2018-04-19 01:00:00 14.1 24 Nordeste 31 Nordeste 0 -- -- 63
2018-04-19 00:00:00 15.9 22 Nordeste 29 Nordeste 0 -- -- 55
2018-04-18 23:00:00 17.1 19 Nordeste 25 Nordeste 0 -- -- 50
2018-04-18 22:00:00 18.2 12 Nordeste 19 Este 0 -- -- 52
2018-04-18 21:00:00 20 7 Nordeste 13 Nordeste 0 -- -- 56
2018-04-18 20:00:00 22.7 9 Nordeste 19 Este 0 -- -- 45
2018-04-18 19:00:00 23.5 9 Este 18 Este 0 -- -- 32
2018-04-18 18:00:00 23.7 5 Nordeste 21 Este 0 -- -- 38
2018-04-18 17:00:00 23.5 4 Oeste 15 Este 0 -- -- 42
2018-04-18 16:00:00 23.1 6 Sur 15 Este 0 -- -- 43
2018-04-18 15:00:00 22.2 4 Sudeste 16 Sur 0 -- -- 45
2018-04-18 14:00:00 20.9 9 Sudeste 20 Este 0 -- -- 44
2018-04-18 13:00:00 20.4 8 Este 20 Este 0 -- -- 44
2018-04-18 12:00:00 18.2 10 Nordeste 15 Nordeste 0 -- -- 58
2018-04-18 11:00:00 15.7 9 Nordeste 20 Nordeste 0 -- -- 64
2018-04-18 10:00:00 12.9 14 Nordeste 27 Este 0 -- -- 70
2018-04-18 09:00:00 11.5 10 Nordeste 25 Nordeste 0 -- -- 70
2018-04-18 08:00:00 10.6 19 Nordeste 26 Nordeste 0 -- -- 69
2018-04-18 07:00:00 11 17 Nordeste 28 Este 0 -- -- 65